Time;durP1;ratioP1;P1;durP2;ratioP2;P2;SDS_P1;SDS_P2;PMS_P1;PMS_P2;Temp;Humidity;BMP_temperature;BMP_pressure;BME280_temperature;BME280_humidity;BME280_pressure;Samples;Min_cycle;Max_cycle;Signal;HPM_P1;HPM_P2
2023/05/03 00:02:01;;;;;;;;;;;;;;;8.60;nan;101499.69;5054687;28;19967;-77
2023/05/03 00:04:27;;;;;;;;;;;;;;;8.60;nan;101501.50;5025266;28;20581;-78
2023/05/03 00:06:52;;;;;;;;;;;;;;;8.59;nan;101502.47;5035421;28;19980;-78
2023/05/03 00:09:18;;;;;;;;;;;;;;;8.58;nan;101500.78;5041180;28;20397;-78
2023/05/03 00:11:43;;;;;;;;;;;;;;;8.54;nan;101502.81;5039536;28;19923;-77
2023/05/03 00:14:08;;;;;;;;;;;;;;;8.55;nan;101507.13;5038347;28;19921;-77
2023/05/03 00:16:34;;;;;;;;;;;;;;;8.52;nan;101506.53;5040666;28;19924;-78
2023/05/03 00:18:59;;;;;;;;;;;;;;;8.48;nan;101505.91;5058794;28;20311;-77
2023/05/03 00:21:25;;;;;;;;;;;;;;;8.46;nan;101505.16;5042014;28;19924;-79
2023/05/03 00:23:54;;;;;;;;;;;;;;;8.44;nan;101493.94;5040470;28;19980;-78
2023/05/03 00:26:19;;;;;;;;;;;;;;;8.41;nan;101502.88;5058647;28;20274;-78
2023/05/03 00:28:44;;;;;;;;;;;;;;;8.37;nan;101501.41;5058639;28;19928;-77
2023/05/03 00:31:10;;;;;;;;;;;;;;;8.40;nan;101495.09;5058670;28;20426;-77
2023/05/03 00:33:36;;;;;;;;;;;;;;;8.33;nan;101496.47;5058907;28;19921;-78
2023/05/03 00:36:07;;;;;;;;;;;;;;;8.32;nan;101495.63;5054305;28;19921;-78
2023/05/03 00:38:33;;;;;;;;;;;;;;;8.31;nan;101496.56;5058030;28;19990;-78
2023/05/03 00:40:58;;;;;;;;;;;;;;;8.24;nan;101493.53;5039762;28;19921;-78
2023/05/03 00:43:23;;;;;;;;;;;;;;;8.21;nan;101496.41;5058547;28;19929;-78
2023/05/03 00:45:49;;;;;;;;;;;;;;;8.19;nan;101489.56;5060057;28;19956;-78
2023/05/03 00:48:16;;;;;;;;;;;;;;;8.22;nan;101492.84;5044159;28;19928;-78
2023/05/03 00:50:42;;;;;;;;;;;;;;;8.16;nan;101485.38;5042476;28;19927;-78
2023/05/03 00:53:07;;;;;;;;;;;;;;;8.14;nan;101489.91;5062854;28;20347;-78
2023/05/03 00:55:39;;;;;;;;;;;;;;;8.11;nan;101487.50;5059069;28;19917;-78
2023/05/03 00:58:04;;;;;;;;;;;;;;;8.06;nan;101484.38;5039763;28;19996;-78
2023/05/03 01:00:30;;;;;;;;;;;;;;;8.07;nan;101488.69;5043193;28;19963;-78
2023/05/03 01:02:56;;;;;;;;;;;;;;;7.97;nan;101477.97;5055245;28;20277;-78
2023/05/03 01:05:21;;;;;;;;;;;;;;;7.92;nan;101476.63;5044799;28;19921;-78
2023/05/03 01:07:54;;;;;;;;;;;;;;;7.92;nan;101471.38;5044688;28;19924;-79
2023/05/03 01:10:32;;;;;;;;;;;;;;;7.90;nan;101465.38;5040839;28;19932;-79
2023/05/03 01:13:13;;;;;;;;;;;;;;;7.91;nan;101462.59;5056104;28;19978;-79
2023/05/03 01:15:59;;;;;;;;;;;;;;;7.88;nan;101461.03;5041222;28;20011;-79
2023/05/03 01:18:33;;;;;;;;;;;;;;;7.84;nan;101453.47;5047976;28;20364;-79
2023/05/03 01:20:58;;;;;;;;;;;;;;;7.84;nan;101462.22;5040053;28;19921;-79
2023/05/03 01:23:32;;;;;;;;;;;;;;;7.77;nan;101463.63;5059352;28;20446;-78
2023/05/03 01:26:03;;;;;;;;;;;;;;;7.74;nan;101463.81;5034478;28;19950;-78
2023/05/03 01:28:29;;;;;;;;;;;;;;;7.69;nan;101450.16;5058685;28;19917;-79
2023/05/03 01:30:55;;;;;;;;;;;;;;;7.64;nan;101454.91;5042063;28;19931;-79
2023/05/03 01:33:25;;;;;;;;;;;;;;;7.69;nan;101455.44;5043047;28;19917;-78
2023/05/03 01:35:53;;;;;;;;;;;;;;;7.59;nan;101447.34;5048950;28;19928;-79
2023/05/03 01:38:19;;;;;;;;;;;;;;;7.62;nan;101446.28;5041886;28;19951;-79
2023/05/03 01:40:51;;;;;;;;;;;;;;;7.61;nan;101452.50;5041685;28;19932;-79
2023/05/03 01:43:18;;;;;;;;;;;;;;;7.56;nan;101458.09;5060627;28;19924;-78
2023/05/03 01:45:43;;;;;;;;;;;;;;;7.55;nan;101442.41;5039253;28;20376;-78
2023/05/03 01:48:10;;;;;;;;;;;;;;;7.51;nan;101456.72;5037463;28;19936;-79
2023/05/03 01:50:35;;;;;;;;;;;;;;;7.51;nan;101457.59;5051455;28;19928;-78
2023/05/03 01:53:00;;;;;;;;;;;;;;;7.44;nan;101446.66;5060594;28;19921;-79
2023/05/03 01:55:25;;;;;;;;;;;;;;;7.41;nan;101443.38;5033164;28;19970;-79
2023/05/03 01:57:51;;;;;;;;;;;;;;;7.40;nan;101454.88;5054221;28;19925;-78
2023/05/03 02:00:16;;;;;;;;;;;;;;;7.33;nan;101462.34;5039859;28;20386;-79
2023/05/03 02:02:41;;;;;;;;;;;;;;;7.30;nan;101461.75;5056935;28;19924;-78
2023/05/03 02:05:06;;;;;;;;;;;;;;;7.27;nan;101456.69;5046011;28;20339;-79
2023/05/03 02:07:32;;;;;;;;;;;;;;;7.26;nan;101453.22;5034724;28;19921;-78
2023/05/03 02:09:57;;;;;;;;;;;;;;;7.24;nan;101463.00;5048887;28;19923;-78
2023/05/03 02:12:22;;;;;;;;;;;;;;;7.25;nan;101453.34;5042178;28;19916;-78
2023/05/03 02:14:47;;;;;;;;;;;;;;;7.22;nan;101459.63;5042575;28;19928;-78
2023/05/03 02:17:13;;;;;;;;;;;;;;;7.21;nan;101461.41;5056193;28;19936;-78
2023/05/03 02:19:40;;;;;;;;;;;;;;;7.21;nan;101450.91;5040556;28;19923;-78
2023/05/03 02:22:05;;;;;;;;;;;;;;;7.19;nan;101463.31;5023657;28;20285;-78
2023/05/03 02:24:35;;;;;;;;;;;;;;;7.19;nan;101455.41;5042083;28;19984;-79
2023/05/03 02:27:03;;;;;;;;;;;;;;;7.18;nan;101452.91;5057214;28;20404;-79
2023/05/03 02:29:28;;;;;;;;;;;;;;;7.09;nan;101454.38;5036030;28;19952;-79
2023/05/03 02:31:53;;;;;;;;;;;;;;;7.04;nan;101463.56;5040222;28;19932;-80
2023/05/03 02:34:19;;;;;;;;;;;;;;;7.00;nan;101474.25;5040129;28;20029;-78
2023/05/03 02:36:44;;;;;;;;;;;;;;;6.93;nan;101462.47;5036618;28;20313;-78
2023/05/03 02:39:09;;;;;;;;;;;;;;;6.84;nan;101468.41;5040177;28;19928;-79
2023/05/03 02:41:35;;;;;;;;;;;;;;;6.76;nan;101468.88;5053107;28;19921;-78
2023/05/03 02:44:00;;;;;;;;;;;;;;;6.73;nan;101478.78;5059254;28;20393;-79
2023/05/03 02:46:32;;;;;;;;;;;;;;;6.68;nan;101475.63;5040845;28;19929;-78
2023/05/03 02:48:57;;;;;;;;;;;;;;;6.65;nan;101478.44;5032107;28;19921;-78
2023/05/03 02:51:22;;;;;;;;;;;;;;;6.60;nan;101476.13;5034484;28;19921;-78
2023/05/03 02:53:48;;;;;;;;;;;;;;;6.60;nan;101473.50;5060110;28;19943;-78
2023/05/03 02:56:13;;;;;;;;;;;;;;;6.53;nan;101474.84;5041541;28;19925;-78
2023/05/03 02:58:38;;;;;;;;;;;;;;;6.50;nan;101475.91;5039432;28;20380;-78
2023/05/03 03:01:03;;;;;;;;;;;;;;;6.48;nan;101477.78;5040425;28;19924;-78
2023/05/03 03:03:28;;;;;;;;;;;;;;;6.43;nan;101482.50;5039990;28;19921;-78
2023/05/03 03:05:53;;;;;;;;;;;;;;;6.44;nan;101478.13;5041849;28;19943;-79
2023/05/03 03:08:19;;;;;;;;;;;;;;;6.44;nan;101481.56;5050217;28;20039;-79
2023/05/03 03:10:44;;;;;;;;;;;;;;;6.43;nan;101485.13;5045516;28;20743;-79
2023/05/03 03:13:09;;;;;;;;;;;;;;;6.39;nan;101488.94;5059674;28;19921;-79
2023/05/03 03:15:34;;;;;;;;;;;;;;;6.37;nan;101488.19;5033821;28;19943;-77
2023/05/03 03:18:00;;;;;;;;;;;;;;;6.35;nan;101482.19;5041123;28;20400;-78
2023/05/03 03:20:31;;;;;;;;;;;;;;;6.28;nan;101478.28;5059163;28;19927;-78
2023/05/03 03:22:56;;;;;;;;;;;;;;;6.24;nan;101482.03;5039233;28;19921;-78
2023/05/03 03:25:21;;;;;;;;;;;;;;;6.19;nan;101478.88;5056399;28;19924;-77
2023/05/03 03:27:47;;;;;;;;;;;;;;;6.24;nan;101482.03;5042901;28;19921;-78
2023/05/03 03:30:13;;;;;;;;;;;;;;;6.25;nan;101475.84;5034872;28;19987;-78
2023/05/03 03:32:38;;;;;;;;;;;;;;;6.26;nan;101474.91;5050667;28;19944;-78
2023/05/03 03:35:03;;;;;;;;;;;;;;;6.28;nan;101475.66;5040342;28;19921;-78
2023/05/03 03:37:29;;;;;;;;;;;;;;;6.29;nan;101475.56;5032540;28;19925;-78
2023/05/03 03:39:54;;;;;;;;;;;;;;;6.29;nan;101472.06;5054667;28;20012;-78
2023/05/03 03:42:20;;;;;;;;;;;;;;;6.26;nan;101480.16;5034450;28;20052;-78
2023/05/03 03:44:46;;;;;;;;;;;;;;;6.25;nan;101468.81;5027526;28;19921;-78
2023/05/03 03:47:11;;;;;;;;;;;;;;;6.19;nan;101465.72;5036699;28;19951;-78
2023/05/03 03:49:36;;;;;;;;;;;;;;;6.12;nan;101474.00;5045313;28;19925;-78
2023/05/03 03:52:01;;;;;;;;;;;;;;;6.08;nan;101479.56;5042354;28;19920;-78
2023/05/03 03:54:37;;;;;;;;;;;;;;;5.97;nan;101472.38;5042463;28;19940;-78
2023/05/03 03:57:02;;;;;;;;;;;;;;;5.87;nan;101476.50;5041292;28;19933;-78
2023/05/03 03:59:28;;;;;;;;;;;;;;;5.75;nan;101471.09;5054954;28;19921;-78
2023/05/03 04:01:53;;;;;;;;;;;;;;;5.69;nan;101468.00;5037438;28;20430;-78
2023/05/03 04:04:18;;;;;;;;;;;;;;;5.60;nan;101471.22;5040585;28;19921;-77
2023/05/03 04:06:43;;;;;;;;;;;;;;;5.54;nan;101464.56;5046779;28;20520;-78
2023/05/03 04:09:09;;;;;;;;;;;;;;;5.51;nan;101473.47;5024980;28;19924;-78
2023/05/03 04:11:34;;;;;;;;;;;;;;;5.48;nan;101464.94;5052762;28;19982;-78
2023/05/03 04:14:00;;;;;;;;;;;;;;;5.43;nan;101474.88;5040639;28;19920;-77
2023/05/03 04:16:25;;;;;;;;;;;;;;;5.39;nan;101469.00;5027898;28;20021;-78
2023/05/03 04:18:51;;;;;;;;;;;;;;;5.35;nan;101471.91;5053496;28;19932;-77
2023/05/03 04:21:16;;;;;;;;;;;;;;;5.32;nan;101471.16;5040119;28;20323;-78
2023/05/03 04:23:41;;;;;;;;;;;;;;;5.28;nan;101468.81;5040208;28;19928;-77
2023/05/03 04:26:06;;;;;;;;;;;;;;;5.24;nan;101470.78;5037423;28;19928;-77
2023/05/03 04:28:32;;;;;;;;;;;;;;;5.20;nan;101479.78;5053094;28;20016;-78
2023/05/03 04:30:57;;;;;;;;;;;;;;;5.16;nan;101473.03;5041355;28;20436;-78
2023/05/03 04:33:22;;;;;;;;;;;;;;;5.10;nan;101478.63;5037157;28;19925;-78
2023/05/03 04:35:49;;;;;;;;;;;;;;;5.14;nan;101476.69;5038894;28;20315;-78
2023/05/03 04:38:14;;;;;;;;;;;;;;;5.14;nan;101474.91;5031373;28;19932;-77
2023/05/03 04:40:39;;;;;;;;;;;;;;;5.14;nan;101467.03;5037266;28;19921;-78
2023/05/03 04:43:05;;;;;;;;;;;;;;;5.17;nan;101484.34;5039691;28;19928;-78
2023/05/03 04:45:30;;;;;;;;;;;;;;;5.23;nan;101478.75;5038486;28;19932;-78
2023/05/03 04:47:55;;;;;;;;;;;;;;;5.29;nan;101489.72;5040871;28;20428;-78
2023/05/03 04:50:20;;;;;;;;;;;;;;;5.36;nan;101489.31;5053241;28;19948;-78
2023/05/03 04:52:46;;;;;;;;;;;;;;;5.39;nan;101489.16;5043836;28;19921;-78
2023/05/03 04:55:12;;;;;;;;;;;;;;;5.48;nan;101488.56;5061505;28;19920;-77
2023/05/03 04:57:38;;;;;;;;;;;;;;;5.54;nan;101489.03;5060784;28;19932;-79
2023/05/03 05:00:09;;;;;;;;;;;;;;;5.64;nan;101489.28;5034850;28;19924;-79
2023/05/03 05:02:35;;;;;;;;;;;;;;;5.75;nan;101486.00;5062491;28;19921;-84
2023/05/03 05:05:01;;;;;;;;;;;;;;;5.87;nan;101487.00;5042312;28;19951;-77
2023/05/03 05:07:26;;;;;;;;;;;;;;;5.95;nan;101493.47;5041732;28;20388;-77
2023/05/03 05:09:51;;;;;;;;;;;;;;;6.03;nan;101494.75;5049721;28;19921;-77
2023/05/03 05:12:16;;;;;;;;;;;;;;;6.11;nan;101487.25;5015712;28;19925;-77
2023/05/03 05:14:42;;;;;;;;;;;;;;;6.27;nan;101497.56;5039933;28;19928;-77
2023/05/03 05:17:07;;;;;;;;;;;;;;;6.49;nan;101497.03;5038532;28;19921;-79
2023/05/03 05:19:32;;;;;;;;;;;;;;;6.56;nan;101488.63;5051163;28;19948;-76
2023/05/03 05:21:57;;;;;;;;;;;;;;;6.74;nan;101496.22;5033662;28;20384;-78
2023/05/03 05:24:24;;;;;;;;;;;;;;;6.95;nan;101497.41;5051028;28;19965;-79
2023/05/03 05:26:49;;;;;;;;;;;;;;;7.18;nan;101495.00;5030162;28;19971;-77
2023/05/03 05:29:15;;;;;;;;;;;;;;;7.23;nan;101493.72;5046993;28;19928;-77
2023/05/03 05:31:41;;;;;;;;;;;;;;;7.20;nan;101504.47;5058976;28;20012;-77
2023/05/03 05:34:06;;;;;;;;;;;;;;;7.17;nan;101501.19;5052739;28;20357;-78
2023/05/03 05:36:31;;;;;;;;;;;;;;;7.28;nan;101498.66;5039820;28;19980;-77
2023/05/03 05:39:04;;;;;;;;;;;;;;;7.42;nan;101497.72;5051482;28;19939;-77
2023/05/03 05:41:29;;;;;;;;;;;;;;;7.59;nan;101504.41;5045184;28;19952;-77
2023/05/03 05:43:54;;;;;;;;;;;;;;;7.70;nan;101501.88;5042708;28;19999;-77
2023/05/03 05:46:20;;;;;;;;;;;;;;;7.85;nan;101507.84;5060830;28;19927;-77
2023/05/03 05:48:45;;;;;;;;;;;;;;;8.04;nan;101499.44;5035381;28;19921;-78
2023/05/03 05:51:10;;;;;;;;;;;;;;;8.19;nan;101502.75;5037844;28;20569;-77
2023/05/03 05:53:36;;;;;;;;;;;;;;;8.27;nan;101505.66;5041949;28;19920;-77
2023/05/03 05:56:01;;;;;;;;;;;;;;;8.29;nan;101507.25;5044422;28;20000;-77
2023/05/03 05:58:26;;;;;;;;;;;;;;;8.38;nan;101496.97;5060791;28;19928;-77
2023/05/03 06:01:02;;;;;;;;;;;;;;;8.57;nan;101496.47;5062793;28;20381;-77
2023/05/03 06:03:27;;;;;;;;;;;;;;;8.69;nan;101496.38;5061942;28;19990;-78
2023/05/03 06:05:52;;;;;;;;;;;;;;;8.81;nan;101497.25;5062095;28;19929;-77
2023/05/03 06:08:18;;;;;;;;;;;;;;;9.01;nan;101495.75;5045259;28;20047;-79
2023/05/03 06:10:43;;;;;;;;;;;;;;;9.17;nan;101489.28;5052110;28;19921;-78
2023/05/03 06:13:08;;;;;;;;;;;;;;;9.32;nan;101486.28;5044269;28;19924;-79
2023/05/03 06:15:33;;;;;;;;;;;;;;;9.79;nan;101483.47;5031160;28;19947;-79
2023/05/03 06:17:58;;;;;;;;;;;;;;;10.40;nan;101482.97;5066398;28;19924;-78
2023/05/03 06:20:24;;;;;;;;;;;;;;;10.81;nan;101489.22;5037580;28;19921;-79
2023/05/03 06:22:49;;;;;;;;;;;;;;;11.30;nan;101482.41;5042879;28;19937;-81
2023/05/03 06:25:15;;;;;;;;;;;;;;;11.79;nan;101490.50;5053597;28;19921;-80
2023/05/03 06:27:41;;;;;;;;;;;;;;;12.05;nan;101480.25;5046135;28;20029;-80
2023/05/03 06:30:07;;;;;;;;;;;;;;;12.60;nan;101479.69;5046738;28;19925;-79
2023/05/03 06:32:32;;;;;;;;;;;;;;;13.25;nan;101478.00;5044994;28;19937;-79
2023/05/03 06:35:00;;;;;;;;;;;;;;;13.69;nan;101483.53;5063051;28;19931;-80
2023/05/03 06:37:26;;;;;;;;;;;;;;;14.19;nan;101476.91;5039647;28;20436;-79
2023/05/03 06:39:51;;;;;;;;;;;;;;;14.23;nan;101476.44;5034651;28;19920;-79
2023/05/03 06:42:16;;;;;;;;;;;;;;;14.32;nan;101477.34;5057813;23;19945;-88
2023/05/03 06:44:41;;;;;;;;;;;;;;;14.17;nan;101473.56;4988706;28;19957;-86
2023/05/03 06:47:07;;;;;;;;;;;;;;;13.73;nan;101468.97;4988318;28;19922;-85
2023/05/03 06:49:32;;;;;;;;;;;;;;;13.35;nan;101478.81;4986045;28;19937;-84
2023/05/03 06:51:57;;;;;;;;;;;;;;;13.30;nan;101475.75;4992649;28;19922;-83
2023/05/03 06:54:23;;;;;;;;;;;;;;;13.14;nan;101478.16;5004419;28;19925;-83
2023/05/03 06:56:48;;;;;;;;;;;;;;;13.79;nan;101468.34;5006046;28;19929;-85
2023/05/03 06:59:13;;;;;;;;;;;;;;;14.08;nan;101479.78;4999394;28;19933;-87
2023/05/03 07:01:38;;;;;;;;;;;;;;;14.53;nan;101497.50;5004315;28;19927;-88
2023/05/03 07:04:03;;;;;;;;;;;;;;;14.81;nan;101487.59;4997357;28;19925;-86
2023/05/03 07:06:29;;;;;;;;;;;;;;;14.53;nan;101484.19;4997242;28;19918;-86
2023/05/03 07:08:54;;;;;;;;;;;;;;;14.98;nan;101480.53;5004929;28;19960;-86
2023/05/03 07:11:23;;;;;;;;;;;;;;;15.32;nan;101483.22;4998857;28;19926;-87
2023/05/03 07:13:52;;;;;;;;;;;;;;;15.82;nan;101473.59;5005088;28;19942;-88
2023/05/03 07:16:18;;;;;;;;;;;;;;;16.14;nan;101481.66;5004831;28;19936;-87
2023/05/03 07:18:43;;;;;;;;;;;;;;;16.76;nan;101475.81;5025383;23;20008;-84
2023/05/03 07:21:08;;;;;;;;;;;;;;;17.30;nan;101477.03;5033041;28;20379;-84
2023/05/03 07:23:34;;;;;;;;;;;;;;;17.85;nan;101476.13;5039657;28;19967;-85
2023/05/03 07:25:59;;;;;;;;;;;;;;;17.82;nan;101474.66;5022403;28;20404;-84
2023/05/03 07:28:24;;;;;;;;;;;;;;;17.89;nan;101469.44;5021036;28;19972;-85
2023/05/03 07:30:49;;;;;;;;;;;;;;;18.14;nan;101462.09;5021416;28;19940;-84
2023/05/03 07:33:15;;;;;;;;;;;;;;;18.24;nan;101461.84;5035870;28;19928;-85
2023/05/03 07:35:40;;;;;;;;;;;;;;;18.20;nan;101460.53;5013521;28;20015;-85
2023/05/03 07:38:05;;;;;;;;;;;;;;;18.11;nan;101461.59;5016848;28;19952;-85
2023/05/03 07:40:32;;;;;;;;;;;;;;;18.19;nan;101462.38;5035354;28;19917;-85
2023/05/03 07:42:58;;;;;;;;;;;;;;;18.59;nan;101457.69;5023129;28;19921;-85
2023/05/03 07:45:23;;;;;;;;;;;;;;;18.51;nan;101459.59;5023646;28;19926;-84
2023/05/03 07:47:48;;;;;;;;;;;;;;;18.75;nan;101458.53;5039957;28;19967;-84
2023/05/03 07:50:14;;;;;;;;;;;;;;;18.63;nan;101461.66;5023804;28;19917;-84
2023/05/03 07:52:41;;;;;;;;;;;;;;;18.81;nan;101457.84;5012544;28;19930;-85
2023/05/03 07:55:06;;;;;;;;;;;;;;;18.63;nan;101467.00;5017909;28;19921;-84
2023/05/03 07:57:31;;;;;;;;;;;;;;;19.05;nan;101456.75;5019427;28;19925;-85
2023/05/03 07:59:57;;;;;;;;;;;;;;;19.31;nan;101459.78;5017776;28;19928;-85
2023/05/03 08:02:22;;;;;;;;;;;;;;;19.22;nan;101455.53;5029752;28;19925;-85
2023/05/03 08:04:47;;;;;;;;;;;;;;;19.36;nan;101458.41;5019473;28;19921;-85
2023/05/03 08:07:12;;;;;;;;;;;;;;;19.75;nan;101458.06;5020794;28;19936;-84
2023/05/03 08:09:38;;;;;;;;;;;;;;;19.78;nan;101459.53;5038197;23;19943;-84
2023/05/03 08:12:03;;;;;;;;;;;;;;;20.25;nan;101458.97;5009352;28;19926;-82
2023/05/03 08:14:28;;;;;;;;;;;;;;;20.33;nan;101469.59;5013055;28;20254;-81
2023/05/03 08:16:54;;;;;;;;;;;;;;;20.64;nan;101459.53;5027204;28;19921;-79
2023/05/03 08:19:21;;;;;;;;;;;;;;;21.27;nan;101454.13;5023485;28;19921;-81
2023/05/03 08:21:46;;;;;;;;;;;;;;;21.37;nan;101454.56;5021045;28;19941;-80
2023/05/03 08:24:12;;;;;;;;;;;;;;;21.56;nan;101456.53;5032053;28;20403;-80
2023/05/03 08:26:38;;;;;;;;;;;;;;;21.72;nan;101457.22;5028827;28;19948;-80
2023/05/03 08:29:03;;;;;;;;;;;;;;;22.21;nan;101456.09;5018385;28;19921;-80
2023/05/03 08:31:30;;;;;;;;;;;;;;;21.96;nan;101458.53;5022077;28;20265;-80
2023/05/03 08:33:55;;;;;;;;;;;;;;;22.45;nan;101450.09;5023700;28;19921;-80
2023/05/03 08:36:20;;;;;;;;;;;;;;;22.77;nan;101444.06;5017926;28;19929;-80
2023/05/03 08:38:45;;;;;;;;;;;;;;;23.11;nan;101451.88;5032070;28;19961;-80
2023/05/03 08:41:27;;;;;;;;;;;;;;;22.96;nan;101447.75;5029755;28;20556;-80
2023/05/03 08:43:53;;;;;;;;;;;;;;;23.32;nan;101447.25;4996727;28;20012;-80
2023/05/03 08:46:18;;;;;;;;;;;;;;;23.79;nan;101442.47;4986662;28;19981;-79
2023/05/03 08:48:46;;;;;;;;;;;;;;;23.47;nan;101436.16;4999409;28;19968;-80
2023/05/03 08:51:12;;;;;;;;;;;;;;;23.44;nan;101453.63;4996123;28;19922;-80
2023/05/03 08:53:37;;;;;;;;;;;;;;;23.61;nan;101445.03;4980585;28;19954;-81
2023/05/03 08:56:07;;;;;;;;;;;;;;;23.84;nan;101449.94;4994834;28;19937;-83
2023/05/03 08:58:36;;;;;;;;;;;;;;;24.43;nan;101450.50;4996211;28;19933;-82
2023/05/03 09:01:05;;;;;;;;;;;;;;;23.78;nan;101448.09;5005734;28;19928;-81
2023/05/03 09:03:31;;;;;;;;;;;;;;;23.24;nan;101444.75;4999643;28;20305;-83
2023/05/03 09:06:00;;;;;;;;;;;;;;;22.71;nan;101450.28;5001481;28;19937;-82
2023/05/03 09:08:26;;;;;;;;;;;;;;;22.61;nan;101454.22;5005424;28;20432;-81
2023/05/03 09:10:51;;;;;;;;;;;;;;;22.24;nan;101445.75;5002828;28;19922;-82
2023/05/03 09:13:16;;;;;;;;;;;;;;;22.87;nan;101450.66;5003352;28;19922;-83
2023/05/03 09:15:44;;;;;;;;;;;;;;;23.48;nan;101445.94;5019244;28;19949;-79
2023/05/03 09:18:12;;;;;;;;;;;;;;;24.55;nan;101440.66;4996002;28;19922;-81
2023/05/03 09:20:38;;;;;;;;;;;;;;;25.47;nan;101448.81;5024285;28;19949;-82
2023/05/03 09:23:05;;;;;;;;;;;;;;;25.27;nan;101440.16;5002998;28;19922;-79
2023/05/03 09:25:40;;;;;;;;;;;;;;;22.57;nan;101317.38;5000472;28;20566;-79
2023/05/03 09:28:05;;;;;;;;;;;;;;;21.06;nan;101297.22;5006199;28;19918;-78
2023/05/03 09:30:31;;;;;;;;;;;;;;;20.45;nan;101283.69;5000011;28;19921;-78
2023/05/03 09:32:56;;;;;;;;;;;;;;;21.49;nan;101301.47;5015056;28;20020;-78
2023/05/03 09:35:21;;;;;;;;;;;;;;;22.99;nan;101307.91;5019505;28;20378;-79
2023/05/03 09:37:46;;;;;;;;;;;;;;;24.40;nan;101311.22;5003040;28;19930;-79
2023/05/03 09:40:16;;;;;;;;;;;;;;;24.41;nan;101315.59;5005252;28;20382;-79
2023/05/03 09:43:02;;;;;;;;;;;;;;;23.11;nan;101310.75;5003631;28;19921;-79
2023/05/03 09:45:27;;;;;;;;;;;;;;;;;;4997589;28;19988;-78
2023/05/03 09:47:54;;;;;;;;;;;;;;;21.49;nan;101290.72;4999808;28;20535;-78
2023/05/03 09:50:19;;;;;;;;;;;;;;;;;;5001313;28;19918;-78
2023/05/03 09:52:45;;;;;;;;;;;;;;;21.11;nan;101426.53;5009084;28;19949;-78
2023/05/03 09:55:10;;;;;;;;;;;;;;;20.78;nan;101262.38;5015634;28;19925;-78
2023/05/03 09:57:36;;;;;;;;;;;;;;;21.53;nan;101273.13;5006051;28;19926;-78
2023/05/03 10:00:01;;;;;;;;;;;;;;;;;;5022054;28;19949;-80
2023/05/03 10:02:29;;;;;;;;;;;;;;;21.53;nan;101275.81;4999497;28;19972;-78
2023/05/03 10:04:56;;;;;;;;;;;;;;;21.61;nan;101270.22;5008979;28;20412;-78
2023/05/03 10:07:22;;;;;;;;;;;;;;;21.80;nan;101282.84;5000111;28;19929;-78
2023/05/03 10:09:47;;;;;;;;;;;;;;;22.71;nan;101283.13;5005273;28;19922;-78
2023/05/03 10:12:15;;;;;;;;;;;;;;;23.86;nan;101293.84;4982768;28;19922;-78
2023/05/03 10:14:42;;;;;;;;;;;;;;;24.26;nan;101285.38;4999747;28;19922;-77
2023/05/03 10:17:29;;;;;;;;;;;;;;;24.94;nan;101292.50;4996877;28;19922;-80
2023/05/03 10:20:14;;;;;;;;;;;;;;;25.67;nan;101296.88;5000365;28;19922;-80
2023/05/03 10:22:57;;;;;;;;;;;;;;;25.33;nan;101293.03;4998638;28;19922;-80
2023/05/03 10:25:23;;;;;;;;;;;;;;;25.71;nan;101286.38;5001628;28;20443;-80
2023/05/03 10:28:00;;;;;;;;;;;;;;;25.85;nan;101277.78;5008245;28;19918;-80
2023/05/03 10:30:31;;;;;;;;;;;;;;;25.28;nan;101282.06;5012329;28;19928;-81
2023/05/03 10:32:56;;;;;;;;;;;;;;;25.37;nan;101281.50;4998171;28;19918;-81
2023/05/03 10:35:26;;;;;;;;;;;;;;;26.30;nan;101278.28;4989503;28;19957;-80
2023/05/03 10:37:51;;;;;;;;;;;;;;;27.28;nan;101282.69;4995429;28;19922;-80
2023/05/03 10:40:17;;;;;;;;;;;;;;;27.81;nan;101293.34;5004675;28;19918;-81
2023/05/03 10:42:48;;;;;;;;;;;;;;;28.27;nan;101269.56;4998137;28;20354;-80
2023/05/03 10:45:27;;;;;;;;;;;;;;;28.64;nan;101268.97;5005677;28;19982;-81
2023/05/03 10:48:10;;;;;;;;;;;;;;;29.17;nan;101279.06;4999021;28;20603;-81
2023/05/03 10:50:36;;;;;;;;;;;;;;;28.58;nan;101271.63;5017170;28;19984;-81
2023/05/03 10:53:01;;;;;;;;;;;;;;;27.83;nan;101264.06;4998505;28;19922;-81
2023/05/03 10:55:27;;;;;;;;;;;;;;;27.34;nan;101267.34;4999748;28;19929;-80
2023/05/03 10:57:57;;;;;;;;;;;;;;;28.03;nan;101258.06;4998700;28;20068;-80
2023/05/03 11:00:31;;;;;;;;;;;;;;;28.37;nan;101256.09;4998675;28;19940;-83
2023/05/03 11:02:56;;;;;;;;;;;;;;;28.15;nan;101251.47;4997888;28;20553;-80
2023/05/03 11:05:23;;;;;;;;;;;;;;;28.77;nan;101265.81;5013066;28;19957;-81
2023/05/03 11:07:48;;;;;;;;;;;;;;;28.97;nan;101267.97;5002276;28;20357;-81
2023/05/03 11:10:16;;;;;;;;;;;;;;;28.84;nan;101243.84;5010061;28;19926;-81
2023/05/03 11:12:42;;;;;;;;;;;;;;;29.07;nan;101259.91;5007027;28;19925;-81
2023/05/03 11:15:07;;;;;;;;;;;;;;;29.58;nan;101257.66;5017180;28;20594;-81
2023/05/03 11:17:32;;;;;;;;;;;;;;;29.99;nan;101257.13;4999940;28;19972;-82
2023/05/03 11:19:58;;;;;;;;;;;;;;;30.36;nan;101257.03;5021738;28;19922;-82
2023/05/03 11:22:23;;;;;;;;;;;;;;;30.27;nan;101254.03;5004926;28;19918;-81
2023/05/03 11:24:50;;;;;;;;;;;;;;;30.86;nan;101265.69;5014871;28;20016;-81
2023/05/03 11:27:22;;;;;;;;;;;;;;;30.59;nan;101269.41;4998339;28;20373;-81
2023/05/03 11:29:58;;;;;;;;;;;;;;;29.87;nan;101254.59;5002290;28;19905;-87
2023/05/03 11:32:33;;;;;;;;;;;;;;;28.89;nan;101244.75;3879178;22;19926;-84
2023/05/03 11:35:05;;;;;;;;;;;;;;;27.92;nan;101240.81;5013522;28;20004;-82
2023/05/03 11:37:34;;;;;;;;;;;;;;;28.61;nan;101228.66;5005847;28;19918;-82
2023/05/03 11:39:59;;;;;;;;;;;;;;;28.14;nan;101227.25;5030799;28;19921;-81
2023/05/03 11:42:25;;;;;;;;;;;;;;;28.97;nan;101244.28;5025069;28;19943;-82
2023/05/03 11:44:54;;;;;;;;;;;;;;;29.47;nan;101236.84;4996800;28;19921;-82
2023/05/03 11:47:20;;;;;;;;;;;;;;;29.70;nan;101218.47;5021115;28;19936;-81
2023/05/03 11:49:55;;;;;;;;;;;;;;;29.69;nan;101225.03;5022084;28;20402;-80
2023/05/03 11:52:28;;;;;;;;;;;;;;;29.63;nan;101230.41;5020447;28;19923;-81
2023/05/03 11:54:55;;;;;;;;;;;;;;;29.17;nan;101223.78;5021888;28;20370;-82
2023/05/03 11:57:20;;;;;;;;;;;;;;;28.66;nan;101223.28;5022724;28;20369;-81
2023/05/03 11:59:46;;;;;;;;;;;;;;;28.80;nan;101219.88;5005418;28;19917;-82
2023/05/03 12:02:13;;;;;;;;;;;;;;;28.59;nan;101218.03;5038637;28;19949;-82
2023/05/03 12:04:44;;;;;;;;;;;;;;;27.75;nan;101205.50;5039164;28;19921;-82
2023/05/03 12:07:12;;;;;;;;;;;;;;;27.07;nan;101210.88;5020988;28;19993;-82
2023/05/03 12:09:39;;;;;;;;;;;;;;;27.02;nan;101204.56;5021459;28;19928;-82
2023/05/03 12:12:04;;;;;;;;;;;;;;;27.00;nan;101212.94;5020322;28;19917;-82
2023/05/03 12:14:48;;;;;;;;;;;;;;;25.75;nan;101204.41;5021882;28;19918;-82
2023/05/03 12:17:14;;;;;;;;;;;;;;;24.95;nan;101207.56;5026109;28;20341;-82
2023/05/03 12:19:39;;;;;;;;;;;;;;;24.88;nan;101207.66;4986175;28;19972;-82
2023/05/03 12:22:18;;;;;;;;;;;;;;;24.37;nan;101195.44;5018107;28;19957;-81
2023/05/03 12:24:43;;;;;;;;;;;;;;;24.25;nan;101187.25;5032848;28;19999;-82
2023/05/03 12:27:12;;;;;;;;;;;;;;;24.22;nan;101187.72;5039043;28;19960;-82
2023/05/03 12:29:37;;;;;;;;;;;;;;;24.08;nan;101176.22;5051228;28;19947;-82
2023/05/03 12:32:03;;;;;;;;;;;;;;;23.83;nan;101173.59;5054815;28;19920;-84
2023/05/03 12:34:28;;;;;;;;;;;;;;;;;;5052820;28;20012;-85
2023/05/03 12:36:53;;;;;;;;;;;;;;;23.04;nan;101169.69;5056277;28;19936;-84
2023/05/03 12:39:18;;;;;;;;;;;;;;;22.73;nan;101146.22;5049811;28;20377;-85
2023/05/03 12:41:43;;;;;;;;;;;;;;;22.39;nan;101145.59;5039286;28;19932;-84
2023/05/03 12:44:09;;;;;;;;;;;;;;;22.38;nan;101138.53;5047839;28;19997;-85
2023/05/03 12:46:36;;;;;;;;;;;;;;;22.21;nan;101132.81;5054469;28;19947;-85
2023/05/03 12:49:01;;;;;;;;;;;;;;;22.16;nan;101129.91;5055751;28;19924;-81
2023/05/03 12:51:26;;;;;;;;;;;;;;;21.45;nan;101133.41;5033209;28;20003;-83
2023/05/03 12:53:51;;;;;;;;;;;;;;;21.48;nan;101116.88;5032991;28;19935;-83
2023/05/03 12:56:17;;;;;;;;;;;;;;;21.56;nan;101111.25;5056236;28;19921;-83
2023/05/03 12:58:43;;;;;;;;;;;;;;;21.70;nan;101115.56;5057732;28;19989;-85
2023/05/03 13:01:08;;;;;;;;;;;;;;;21.58;nan;101112.69;5032440;28;19947;-83
2023/05/03 13:03:34;;;;;;;;;;;;;;;21.32;nan;101253.41;5038204;28;19920;-82